createdAt,value
2023-05-14T00:02:00.802Z,100803.56
2023-05-14T00:05:06.993Z,100797.91
2023-05-14T00:08:09.733Z,100789.38
2023-05-14T00:11:12.415Z,100789.22
2023-05-14T00:14:15.347Z,100792.28
2023-05-14T00:17:19.344Z,100785.84
2023-05-14T00:20:22.045Z,100781.38
2023-05-14T00:23:25.387Z,100764.47
2023-05-14T00:26:28.173Z,100781.38
2023-05-14T00:29:30.745Z,100782.34
2023-05-14T00:32:34.017Z,100768.84
2023-05-14T00:35:36.728Z,100783.31
2023-05-14T00:38:39.315Z,100778.00
2023-05-14T00:41:43.587Z,100769.88
2023-05-14T00:44:46.897Z,100776.06
2023-05-14T00:47:49.916Z,100750.75
2023-05-14T00:50:52.752Z,100756.75
2023-05-14T00:53:55.574Z,100774.34
2023-05-14T00:56:59.650Z,100760.09
2023-05-14T01:00:05.030Z,100763.97
2023-05-14T01:03:08.760Z,100762.31
2023-05-14T01:06:34.680Z,100753.34
2023-05-14T01:09:37.141Z,100746.34
2023-05-14T01:12:48.785Z,100742.44
2023-05-14T01:15:55.135Z,100746.34
2023-05-14T01:19:00.073Z,100748.38
2023-05-14T01:22:02.763Z,100739.84
2023-05-14T01:25:07.357Z,100733.06
2023-05-14T01:28:20.152Z,100732.38
2023-05-14T01:31:29.372Z,100728.28
2023-05-14T01:34:33.120Z,100713.66
2023-05-14T01:37:37.949Z,100716.75
2023-05-14T01:40:42.169Z,100721.31
2023-05-14T01:43:45.724Z,100718.91
2023-05-14T01:46:48.261Z,100712.19
2023-05-14T01:49:51.188Z,100698.50
2023-05-14T01:52:56.587Z,100698.78
2023-05-14T01:56:00.927Z,100682.72
2023-05-14T01:59:04.329Z,100673.59
2023-05-14T02:02:07.145Z,100673.59
2023-05-14T02:05:13.370Z,100685.63
2023-05-14T02:08:15.918Z,100674.69
2023-05-14T02:11:20.015Z,100670.53
2023-05-14T02:14:23.509Z,100670.28
2023-05-14T02:17:26.603Z,100669.16
2023-05-14T02:20:30.091Z,100678.13
2023-05-14T02:23:40.994Z,100674.47
2023-05-14T02:26:43.988Z,100677.59
2023-05-14T02:29:46.589Z,100676.19
2023-05-14T02:32:49.929Z,100675.91
2023-05-14T02:35:52.884Z,100674.22
2023-05-14T02:38:59.313Z,100659.91
2023-05-14T02:42:02.053Z,100674.22
2023-05-14T02:45:05.157Z,100669.63
2023-05-14T02:48:08.717Z,100676.47
2023-05-14T02:51:11.275Z,100666.94
2023-05-14T02:54:16.896Z,100675.06
2023-05-14T02:57:19.671Z,100666.22
2023-05-14T03:00:23.845Z,100672.28
2023-05-14T03:03:26.896Z,100666.22
2023-05-14T03:06:29.903Z,100661.63
2023-05-14T03:09:32.415Z,100656.31
2023-05-14T03:12:35.300Z,100647.34
2023-05-14T03:15:37.997Z,100656.59
2023-05-14T03:18:40.868Z,100658.25
2023-05-14T03:21:44.930Z,100663.56
2023-05-14T03:24:47.625Z,100663.31
2023-05-14T03:27:52.208Z,100662.50
2023-05-14T03:30:57.336Z,100664.75
2023-05-14T03:34:00.021Z,100656.47
2023-05-14T03:37:02.632Z,100661.25
2023-05-14T03:40:07.214Z,100649.06
2023-05-14T03:43:12.053Z,100658.84
2023-05-14T03:46:15.915Z,100652.41
2023-05-14T03:49:18.647Z,100664.28
2023-05-14T03:52:21.296Z,100665.28
2023-05-14T03:55:25.786Z,100655.16
2023-05-14T03:58:29.324Z,100625.88
2023-05-14T04:01:31.897Z,100631.78
2023-05-14T04:04:34.657Z,100643.56
2023-05-14T04:07:38.273Z,100653.91
2023-05-14T04:10:40.886Z,100658.25
2023-05-14T04:13:45.933Z,100648.16
2023-05-14T04:16:49.086Z,100649.06
2023-05-14T04:19:51.776Z,100642.63
2023-05-14T04:22:54.403Z,100642.63
2023-05-14T04:25:57.090Z,100635.19
2023-05-14T04:29:03.148Z,100638.16
2023-05-14T04:32:06.811Z,100635.75
2023-05-14T04:35:10.497Z,100624.28
2023-05-14T04:38:14.363Z,100605.06
2023-05-14T04:41:17.046Z,100622.47
2023-05-14T04:44:21.399Z,100637.00
2023-05-14T04:47:24.114Z,100634.47
2023-05-14T04:50:27.952Z,100625.66
2023-05-14T04:53:30.584Z,100626.88
2023-05-14T04:56:33.468Z,100619.50
2023-05-14T04:59:35.968Z,100628.59
2023-05-14T05:02:38.566Z,100630.44
2023-05-14T05:05:43.742Z,100618.81
2023-05-14T05:08:46.340Z,100616.16
2023-05-14T05:11:49.536Z,100603.66
2023-05-14T05:14:52.069Z,100625.56
2023-05-14T05:17:54.657Z,100616.59
2023-05-14T05:20:57.228Z,100619.44
2023-05-14T05:23:59.819Z,100620.84
2023-05-14T05:27:02.352Z,100608.38
2023-05-14T05:30:05.418Z,100612.16
2023-05-14T05:33:08.158Z,100605.13
2023-05-14T05:36:10.970Z,100612.56
2023-05-14T05:39:14.297Z,100611.44
2023-05-14T05:42:16.771Z,100615.09
2023-05-14T05:45:19.624Z,100610.72
2023-05-14T05:48:24.411Z,100610.47
2023-05-14T05:51:27.012Z,100616.50
2023-05-14T05:54:29.632Z,100613.38
2023-05-14T05:57:32.136Z,100610.47
2023-05-14T06:00:34.866Z,100620.31
2023-05-14T06:03:37.384Z,100611.91
2023-05-14T06:06:39.925Z,100623.69
2023-05-14T06:09:42.561Z,100625.38
2023-05-14T06:12:45.377Z,100611.53
2023-05-14T06:15:48.004Z,100625.09
2023-05-14T06:18:52.477Z,100622.53
2023-05-14T06:21:55.862Z,100629.03
2023-05-14T06:24:58.628Z,100623.69
2023-05-14T06:28:01.096Z,100621.31
2023-05-14T06:31:03.803Z,100633.50
2023-05-14T06:34:08.181Z,100626.75
2023-05-14T06:37:11.240Z,100628.22
2023-05-14T06:40:15.860Z,100623.47
2023-05-14T06:43:18.320Z,100623.03
2023-05-14T06:46:20.929Z,100609.19
2023-05-14T06:49:23.669Z,100594.75
2023-05-14T06:52:26.188Z,100609.34
2023-05-14T06:55:29.725Z,100604.06
2023-05-14T06:58:32.299Z,100604.31
2023-05-14T07:01:36.450Z,100606.44
2023-05-14T07:04:41.407Z,100601.41
2023-05-14T07:07:44.104Z,100594.66
2023-05-14T07:10:46.730Z,100584.97
2023-05-14T07:13:49.509Z,100592.81
2023-05-14T07:16:52.259Z,100586.75
2023-05-14T07:19:56.029Z,100587.75
2023-05-14T07:22:58.538Z,100586.16
2023-05-14T07:26:01.086Z,100580.38
2023-05-14T07:29:03.898Z,100572.66
2023-05-14T07:32:07.379Z,100540.56
2023-05-14T07:35:11.782Z,100564.28
2023-05-14T07:38:14.570Z,100560.72
2023-05-14T07:41:17.150Z,100551.63
2023-05-14T07:44:19.751Z,100556.81
2023-05-14T07:47:22.353Z,100563.22
2023-05-14T07:50:25.907Z,100551.75
2023-05-14T07:53:28.605Z,100554.53
2023-05-14T07:56:31.710Z,100542.69
2023-05-14T07:59:34.253Z,100536.56
2023-05-14T08:02:36.809Z,100538.22
2023-05-14T08:05:40.473Z,100537.31
2023-05-14T08:08:43.553Z,100533.94
2023-05-14T08:11:47.082Z,100531.13
2023-05-14T08:14:50.725Z,100526.13
2023-05-14T08:17:53.247Z,100519.81
2023-05-14T08:20:56.101Z,100514.63
2023-05-14T08:23:58.774Z,100516.31
2023-05-14T08:27:02.393Z,100513.47
2023-05-14T08:30:06.458Z,100508.69
2023-05-14T08:33:09.302Z,100504.88
2023-05-14T08:36:11.918Z,100508.63
2023-05-14T08:39:15.468Z,100506.66
2023-05-14T08:42:22.086Z,100502.56
2023-05-14T08:45:34.119Z,100489.31
2023-05-14T08:48:38.160Z,100475.06
2023-05-14T08:51:41.364Z,100474.44
2023-05-14T08:54:45.578Z,100481.63
2023-05-14T08:57:49.207Z,100464.09
2023-05-14T09:00:51.887Z,100490.19
2023-05-14T09:03:55.001Z,100481.47
2023-05-14T09:07:17.975Z,100471.41
2023-05-14T09:10:22.497Z,100466.81
2023-05-14T09:13:28.122Z,100472.63
2023-05-14T09:16:31.058Z,100482.63
2023-05-14T09:19:33.772Z,100474.00
2023-05-14T09:22:36.432Z,100476.69
2023-05-14T09:25:40.176Z,100474.97
2023-05-14T09:28:43.972Z,100473.31
2023-05-14T09:31:46.811Z,100467.28
2023-05-14T09:34:49.330Z,100470.34
2023-05-14T09:37:55.724Z,100465.16
2023-05-14T09:40:59.259Z,100461.34
2023-05-14T09:44:03.019Z,100463.84
2023-05-14T09:47:06.795Z,100451.19
2023-05-14T09:50:09.618Z,100449.06
2023-05-14T09:53:13.836Z,100440.69
2023-05-14T09:56:16.640Z,100438.84
2023-05-14T09:59:19.256Z,100434.28
2023-05-14T10:02:26.739Z,100428.34
2023-05-14T10:05:30.035Z,100432.91
2023-05-14T10:08:36.427Z,100420.22
2023-05-14T10:11:42.397Z,100395.41
2023-05-14T10:14:50.858Z,100376.44
2023-05-14T10:18:02.472Z,100376.94
2023-05-14T10:21:07.893Z,100369.47
2023-05-14T10:24:11.348Z,100352.97
2023-05-14T10:27:15.288Z,100341.66
2023-05-14T10:30:23.026Z,100329.53
2023-05-14T10:33:25.930Z,100343.09
2023-05-14T10:36:28.450Z,100354.31
2023-05-14T10:39:46.665Z,100374.63
2023-05-14T10:42:49.963Z,100373.94
2023-05-14T10:45:54.070Z,100369.41
2023-05-14T10:48:57.259Z,100369.34
2023-05-14T10:52:01.769Z,100368.44
2023-05-14T10:55:09.284Z,100352.09
2023-05-14T10:58:13.010Z,100359.03
2023-05-14T11:01:16.085Z,100349.06
2023-05-14T11:04:19.528Z,100357.88
2023-05-14T11:07:29.917Z,100354.41
2023-05-14T11:10:32.611Z,100345.69
2023-05-14T11:13:36.045Z,100339.00
2023-05-14T11:16:41.692Z,100335.63
2023-05-14T11:19:46.016Z,100339.00
2023-05-14T11:22:51.684Z,100332.97
2023-05-14T11:25:55.668Z,100352.59
2023-05-14T11:28:58.276Z,100336.03
2023-05-14T11:32:02.401Z,100330.03
2023-05-14T11:35:06.041Z,100335.84
2023-05-14T11:38:17.395Z,100337.13
2023-05-14T11:41:22.915Z,100333.47
2023-05-14T11:44:25.990Z,100329.47
2023-05-14T11:47:29.879Z,100330.28
2023-05-14T11:50:36.597Z,100330.59
2023-05-14T11:53:39.171Z,100327.72
2023-05-14T11:56:42.375Z,100331.97
2023-05-14T11:59:45.952Z,100318.63
2023-05-14T12:02:50.057Z,100303.78
2023-05-14T12:05:57.175Z,100304.63
2023-05-14T12:09:01.552Z,100290.59
2023-05-14T12:12:09.327Z,100295.31
2023-05-14T12:15:13.675Z,100301.66
2023-05-14T12:18:24.753Z,100290.69
2023-05-14T12:21:29.310Z,100286.84
2023-05-14T12:24:31.886Z,100266.97
2023-05-14T12:27:37.828Z,100262.91
2023-05-14T12:30:40.364Z,100275.31
2023-05-14T12:33:42.992Z,100275.63
2023-05-14T12:36:45.615Z,100274.59
2023-05-14T12:39:48.408Z,100272.94
2023-05-14T12:42:51.041Z,100269.56
2023-05-14T12:45:55.515Z,100281.28
2023-05-14T12:48:58.211Z,100266.13
2023-05-14T12:52:17.439Z,100266.91
2023-05-14T12:55:24.667Z,100266.91
2023-05-14T12:58:27.240Z,100231.09
2023-05-14T13:01:30.007Z,100252.72
2023-05-14T13:04:32.862Z,100240.91
2023-05-14T13:07:36.185Z,100234.75
2023-05-14T13:10:39.243Z,100223.59
2023-05-14T13:13:41.701Z,100224.59
2023-05-14T13:16:44.303Z,100228.88
2023-05-14T13:19:47.188Z,100224.16
2023-05-14T13:22:49.721Z,100220.81
2023-05-14T13:25:52.324Z,100211.31
2023-05-14T13:28:54.833Z,100205.75
2023-05-14T13:31:58.688Z,100197.06
2023-05-14T13:35:01.379Z,100197.06
2023-05-14T13:38:03.988Z,100191.53
2023-05-14T13:41:08.398Z,100186.50
2023-05-14T13:44:11.150Z,100180.34
2023-05-14T13:47:13.893Z,100175.31
2023-05-14T13:50:16.518Z,100166.56
2023-05-14T13:53:20.466Z,100167.84
2023-05-14T13:56:23.422Z,100164.84
2023-05-14T13:59:27.134Z,100157.84
2023-05-14T14:02:30.628Z,100156.41
2023-05-14T14:05:35.492Z,100150.94
2023-05-14T14:08:38.044Z,100147.31
2023-05-14T14:11:41.229Z,100150.44
2023-05-14T14:14:43.787Z,100155.06
2023-05-14T14:17:46.538Z,100142.44
2023-05-14T14:20:49.489Z,100129.94
2023-05-14T14:23:52.070Z,100145.31
2023-05-14T14:26:54.587Z,100153.22
2023-05-14T14:29:57.489Z,100152.03
2023-05-14T14:33:01.361Z,100156.53
2023-05-14T14:36:04.588Z,100146.03
2023-05-14T14:39:07.114Z,100149.75
2023-05-14T14:42:09.641Z,100147.31
2023-05-14T14:45:12.496Z,100146.25
2023-05-14T14:48:37.393Z,100129.25
2023-05-14T14:51:40.784Z,100118.31
2023-05-14T14:54:43.478Z,100129.22
2023-05-14T14:57:48.760Z,100130.47
2023-05-14T15:00:53.240Z,100113.84
2023-05-14T15:03:56.263Z,100106.44
2023-05-14T15:06:59.235Z,100098.47
2023-05-14T15:10:02.289Z,100082.44
2023-05-14T15:13:06.284Z,100092.03
2023-05-14T15:16:11.576Z,100100.47
2023-05-14T15:19:14.335Z,100092.28
2023-05-14T15:22:17.054Z,100089.22
2023-05-14T15:25:24.531Z,100088.53
2023-05-14T15:28:27.412Z,100081.53
2023-05-14T15:31:30.625Z,100077.09
2023-05-14T15:34:33.400Z,100076.59
2023-05-14T15:37:38.177Z,100082.72
2023-05-14T15:40:40.712Z,100091.41
2023-05-14T15:43:43.354Z,100079.09
2023-05-14T15:46:46.002Z,100069.41
2023-05-14T15:49:48.640Z,100077.09
2023-05-14T15:52:51.444Z,100071.50
2023-05-14T15:55:54.405Z,100061.00
2023-05-14T15:58:57.011Z,100043.53
2023-05-14T16:01:59.781Z,100038.19
2023-05-14T16:05:02.365Z,100022.94
2023-05-14T16:08:05.101Z,100013.25
2023-05-14T16:11:07.810Z,100020.94
2023-05-14T16:14:10.663Z,100028.25
2023-05-14T16:17:13.201Z,100035.09
2023-05-14T16:20:16.702Z,100035.38
2023-05-14T16:23:19.462Z,100020.03
2023-05-14T16:26:22.464Z,100035.94
2023-05-14T16:29:25.074Z,100030.09
2023-05-14T16:32:28.055Z,100017.31
2023-05-14T16:35:31.032Z,100031.22
2023-05-14T16:38:33.666Z,100029.16
2023-05-14T16:41:36.553Z,100014.41
2023-05-14T16:44:39.156Z,100014.41
2023-05-14T16:47:42.007Z,100000.47
2023-05-14T16:50:44.888Z,99994.84
2023-05-14T16:53:48.796Z,99986.38
2023-05-14T16:56:51.704Z,99980.59
2023-05-14T16:59:54.537Z,99977.94
2023-05-14T17:02:57.501Z,99969.28
2023-05-14T17:06:00.915Z,99975.97
2023-05-14T17:09:04.009Z,99954.75
2023-05-14T17:12:07.218Z,99965.56
2023-05-14T17:15:10.821Z,99967.28
2023-05-14T17:18:14.447Z,99960.44
2023-05-14T17:21:17.090Z,99955.19
2023-05-14T17:24:21.203Z,99954.03
2023-05-14T17:27:24.957Z,99963.84
2023-05-14T17:30:28.419Z,99959.06
2023-05-14T17:33:31.071Z,99952.06
2023-05-14T17:36:36.497Z,99947.56
2023-05-14T17:39:39.248Z,99937.75
2023-05-14T17:42:41.793Z,99936.09
2023-05-14T17:45:53.764Z,99910.72
2023-05-14T17:48:58.425Z,99929.38
2023-05-14T17:52:03.859Z,99909.31
2023-05-14T17:55:06.945Z,99931.38
2023-05-14T17:58:13.457Z,99905.84
2023-05-14T18:01:16.313Z,99920.19
2023-05-14T18:04:19.939Z,99907.19
2023-05-14T18:07:24.160Z,99903.91
2023-05-14T18:10:29.485Z,99912.44
2023-05-14T18:13:32.502Z,99908.75
2023-05-14T18:16:37.110Z,99877.03
2023-05-14T18:19:41.325Z,99892.72
2023-05-14T18:22:44.554Z,99896.94
2023-05-14T18:25:48.696Z,99908.75
2023-05-14T18:28:53.573Z,99919.25
2023-05-14T18:31:57.135Z,99915.09
2023-05-14T18:35:01.365Z,99918.53
2023-05-14T18:38:08.402Z,99929.81
2023-05-14T18:41:12.361Z,99919.38
2023-05-14T18:44:16.030Z,99920.59
2023-05-14T18:47:19.887Z,99920.66
2023-05-14T18:50:25.991Z,99922.72
2023-05-14T18:53:32.263Z,99916.53
2023-05-14T18:56:37.292Z,99921.59
2023-05-14T18:59:41.311Z,99913.81
2023-05-14T19:02:44.993Z,99918.81
2023-05-14T19:05:50.783Z,99896.44
2023-05-14T19:08:56.226Z,99896.78
2023-05-14T19:12:01.163Z,99921.00
2023-05-14T19:15:07.446Z,99906.66
2023-05-14T19:18:13.409Z,99908.16
2023-05-14T19:21:17.556Z,99908.38
2023-05-14T19:24:21.666Z,99900.22
2023-05-14T19:27:25.167Z,99900.22
2023-05-14T19:30:28.807Z,99899.91
2023-05-14T19:33:32.560Z,99903.25
2023-05-14T19:36:36.875Z,99884.75
2023-05-14T19:39:40.579Z,99887.44
2023-05-14T19:42:45.342Z,99888.91
2023-05-14T19:45:49.116Z,99881.41
2023-05-14T19:48:52.969Z,99886.63
2023-05-14T19:51:56.328Z,99885.16
2023-05-14T19:55:00.176Z,99886.25
2023-05-14T19:58:03.596Z,99880.25
2023-05-14T20:01:07.605Z,99880.25
2023-05-14T20:04:14.055Z,99863.56
2023-05-14T20:07:17.682Z,99880.13
2023-05-14T20:10:21.558Z,99878.78
2023-05-14T20:13:25.254Z,99855.94
2023-05-14T20:16:29.549Z,99877.59
2023-05-14T20:19:32.580Z,99864.56
2023-05-14T20:22:35.429Z,99861.78
2023-05-14T20:25:38.226Z,99866.28
2023-05-14T20:28:43.122Z,99861.44
2023-05-14T20:31:45.781Z,99861.25
2023-05-14T20:34:48.626Z,99857.59
2023-05-14T20:37:51.763Z,99852.75
2023-05-14T20:40:54.475Z,99843.94
2023-05-14T20:43:57.032Z,99837.94
2023-05-14T20:46:59.877Z,99830.75
2023-05-14T20:50:02.733Z,99821.72
2023-05-14T20:53:05.267Z,99826.56
2023-05-14T20:56:07.768Z,99821.34
2023-05-14T20:59:10.360Z,99809.00
2023-05-14T21:02:13.224Z,99819.53
2023-05-14T21:05:17.413Z,99810.19
2023-05-14T21:08:20.079Z,99805.53
2023-05-14T21:11:23.117Z,99799.69
2023-05-14T21:14:25.931Z,99802.50
2023-05-14T21:17:28.908Z,99797.19
2023-05-14T21:20:31.506Z,99795.16
2023-05-14T21:23:34.838Z,99795.47
2023-05-14T21:26:37.999Z,99796.47
2023-05-14T21:29:41.313Z,99781.13
2023-05-14T21:32:43.924Z,99782.81
2023-05-14T21:35:47.098Z,99778.47
2023-05-14T21:38:49.552Z,99770.81
2023-05-14T21:41:52.167Z,99736.19
2023-05-14T21:44:54.882Z,99735.88
2023-05-14T21:47:57.642Z,99738.69
2023-05-14T21:51:00.176Z,99732.63
2023-05-14T21:54:02.943Z,99731.28
2023-05-14T21:57:06.532Z,99735.78
2023-05-14T22:00:12.916Z,99730.44
2023-05-14T22:03:17.897Z,99734.97
2023-05-14T22:06:21.066Z,99741.41
2023-05-14T22:09:23.787Z,99740.91
2023-05-14T22:12:26.890Z,99716.09
2023-05-14T22:15:29.652Z,99739.75
2023-05-14T22:18:32.520Z,99752.75
2023-05-14T22:21:35.415Z,99740.28
2023-05-14T22:24:39.079Z,99741.78
2023-05-14T22:27:41.616Z,99745.28
2023-05-14T22:30:44.233Z,99739.81
2023-05-14T22:33:46.793Z,99737.63
2023-05-14T22:36:50.964Z,99736.31
2023-05-14T22:39:53.487Z,99724.50
2023-05-14T22:42:56.048Z,99736.50
2023-05-14T22:45:58.714Z,99741.31
2023-05-14T22:49:01.342Z,99737.47
2023-05-14T22:52:04.225Z,99735.13
2023-05-14T22:55:07.717Z,99734.81
2023-05-14T22:58:10.449Z,99737.16
2023-05-14T23:01:13.038Z,99737.84
2023-05-14T23:04:17.654Z,99729.50
2023-05-14T23:07:20.171Z,99735.88
2023-05-14T23:10:22.668Z,99735.56
2023-05-14T23:13:25.589Z,99729.06
2023-05-14T23:16:29.656Z,99726.25
2023-05-14T23:19:32.205Z,99713.25
2023-05-14T23:22:34.697Z,99711.59
2023-05-14T23:25:37.250Z,99701.50
2023-05-14T23:28:42.097Z,99685.31
2023-05-14T23:31:44.675Z,99679.66
2023-05-14T23:34:47.238Z,99679.34
2023-05-14T23:37:51.138Z,99676.00
2023-05-14T23:40:54.756Z,99680.50
2023-05-14T23:43:57.335Z,99670.19
2023-05-14T23:47:00.153Z,99668.50
2023-05-14T23:50:03.082Z,99662.38
2023-05-14T23:53:07.963Z,99649.69
2023-05-14T23:56:10.866Z,99647.56
2023-05-14T23:59:13.911Z,99645.38
